Steady Brook, Canada
Current Conditions -  °F | °C
As of 2:00 PM on Tuesday 21 Oct 2014 (Local Time) from CYDF Reporting Station
Rain Showers Rain Showers  
Wind Chill: 43°   Ceiling: 3500
Heat Index: 48°   Visibility: 15mi
Dew Point: 37°   Wind: 14mph
Humidity: 66%   Direction: 260°W
Pressure: 30"   Gusts: 31mph
Location:  48.97°N, 57.8°W
Report Text: CYDF 211600Z 26012G27KT 15SM VCSH BKN035 09/03 A3000 RMK SC6 SLP159
Loading
Personal Weather Stations






























Interactive Weather Map
Tropical Storm Tracking
New forecast layout! Learn more

10-Day Weather Forecast

Advertisements
Track Severe Weather on mobile